METAR Data
IDs: Format: Raw Decoded Include TAF

Data at: 0852 UTC 07 Dec 2021

KX07 070735Z AUTO 00000KT M1/4SM FG OVC002 14/14 A3008 RMK A01
KX07 070715Z AUTO 00000KT M1/4SM FG OVC002 13/13 A3009 RMK A01
KX07 070655Z AUTO 00000KT M1/4SM FG OVC002 13/13 A3009 RMK A01
KX07 070635Z AUTO 00000KT M1/4SM FG OVC001 13/13 A3009 RMK A01
KX07 070615Z AUTO 00000KT M1/4SM FG BKN001 12/12 A3008 RMK A01
KX07 070555Z AUTO 00000KT 1/4SM FG VV002 12/12 A3009 RMK A01
KX07 070535Z AUTO 00000KT 1/2SM BR VV005 13/13 A3011 RMK A01
KX07 070455Z AUTO 00000KT M1/4SM FG VV000 14/14 A3012 RMK A01
KX07 070435Z AUTO 00000KT M1/4SM FG VV000 13/13 A3012 RMK A01
KX07 070415Z AUTO 00000KT 1/2SM BR BKN004 15/15 A3012 RMK A01
KX07 070355Z AUTO 00000KT 3SM BR CLR 14/14 A3013 RMK A01
KX07 070335Z AUTO 00000KT 10SM CLR 16/15 A3013 RMK A01
KX07 070315Z AUTO 00000KT 10SM CLR 16/15 A3013 RMK A01
KX07 070255Z AUTO 00000KT 10SM FEW038 17/16 A3013 RMK A01
KX07 070235Z AUTO 00000KT 10SM CLR 18/16 A3012 RMK A01
KX07 070215Z AUTO 00000KT 10SM CLR 18/16 A3013 RMK A01
KX07 070155Z AUTO 00000KT 10SM CLR 19/17 A3013 RMK A01
KX07 070135Z AUTO 00000KT 10SM CLR 18/16 A3012 RMK A01
KX07 070115Z AUTO 00000KT 10SM FEW045 19/16 A3013 RMK A01
KX07 070055Z AUTO 00000KT 10SM FEW045 20/16 A3012 RMK A01
KX07 070035Z AUTO 30004KT 10SM FEW046 FEW050 20/16 A3011 RMK A01
KX07 062355Z AUTO 00000KT 10SM BKN049 BKN055 22/17 A3010 RMK A01
KX07 062335Z AUTO 00000KT 10SM BKN050 22/17 A3009 RMK A01
KX07 062315Z AUTO 30004KT 10SM BKN049 22/17 A3008 RMK A01
KX07 062255Z AUTO 00000KT 10SM SCT050 23/17 A3008 RMK A01
KX07 062235Z AUTO 30006KT 10SM CLR 24/17 A3006 RMK A01
KX07 062215Z AUTO 31005KT 10SM CLR 24/18 A3006 RMK A01
KX07 062155Z AUTO 00000KT 10SM CLR 25/17 A3006 RMK A01
KX07 062135Z AUTO 00000KT 10SM CLR 25/17 A3006 RMK A01
KX07 062115Z AUTO 27005G11KT 10SM CLR 26/17 A3005 RMK A01
KX07 062055Z AUTO 24007KT 10SM FEW050 27/16 A3005 RMK A01
KX07 062035Z AUTO 26008KT 10SM SCT050 28/17 A3006 RMK A01
KX07 062015Z AUTO 25009KT 10SM CLR 28/17 A3006 RMK A01
KX07 061955Z AUTO 26009KT 10SM FEW048 28/17 A3006 RMK A01
KX07 061935Z AUTO 27009KT 10SM SCT048 29/17 A3007 RMK A01
KX07 061915Z AUTO 24007KT 200V290 10SM FEW048 28/17 A3007 RMK A01
KX07 061855Z AUTO 24007KT 10SM CLR 28/17 A3008 RMK A01
KX07 061835Z AUTO 22007KT 10SM CLR 28/18 A3008 RMK A01
KX07 061815Z AUTO 20007KT CLR 28/17 A3008 RMK A01
KX07 061755Z AUTO 22005KT 10SM CLR 27/18 A3010 RMK A01
KX07 061735Z AUTO 21007KT 10SM CLR 27/18 A3011 RMK A01
KX07 061715Z AUTO 20006KT 10SM CLR 27/19 A3012 RMK A01
KX07 061655Z AUTO 19006G12KT 10SM FEW027 27/19 A3013 RMK A01
KX07 061635Z AUTO 190KT 9SM FEW027 25/20 A3015 RMK A01
KX07 061615Z AUTO 00000KT 10SM CLR 25/20 A3015 RMK A01
KX07 061555Z AUTO 20006KT 10SM CLR 25/21 A3017 RMK A01
KX07 061535Z AUTO 17005KT 9SM CLR 24/21 A3017 RMK A01
KX07 061515Z AUTO 19005KT 10SM FEW004 22/22 A3017 RMK A01
KX07 061455Z AUTO 00000KT 7SM BKN003 21/21 A3018 RMK A01
KX07 061435Z AUTO 00000KT 3/4SM BR OVC003 20/20 A3018 RMK A01
KX07 061415Z AUTO 00000KT M1/4SM FG OVC002 19/19 A3017 RMK A01
KX07 061355Z AUTO 00000KT 1/4SM FG OVC002 19/19 A3017 RMK A01
KX07 061335Z AUTO 00000KT 2SM BR BKN002 17/17 A3016 RMK A01
KX07 061315Z AUTO 00000KT M1/4SM FG OVC002 16/16 A3016 RMK A01
KX07 061255Z AUTO 00000KT M1/4SM FG OVC002 15/15 A3016 RMK A01
KX07 061235Z AUTO 00000KT M1/4SM FG OVC002 13/13 A3015 RMK A01
KX07 061215Z AUTO 00000KT M1/4SM FG OVC002 13/13 A3014 RMK A01
KX07 061155Z AUTO 00000KT M1/4SM FG OVC002 14/14 A3014 RMK A01
KX07 061135Z AUTO 00000KT M1/4SM FG OVC002 14/14 A3014 RMK A01 VIS M1/4V5
KX07 061115Z AUTO 00000KT M1/4SM FG OVC002 14/14 A3013 RMK A01
KX07 061055Z AUTO 00000KT 1/4SM FG OVC002 15/15 A3013 RMK A01
KX07 061035Z AUTO 00000KT M1/4SM FG OVC002 15/15 A3013 RMK A01
KX07 061015Z AUTO 00000KT M1/4SM FG OVC002 15/15 A3013 RMK A01
KX07 060955Z AUTO 00000KT OVC002 14/14 A3013 RMK A01
KX07 060935Z AUTO 00000KT M1/4SM FG OVC002 14/14 A3013 RMK A01
KX07 060915Z AUTO 00000KT M1/4SM FG OVC002 14/14 A3013 RMK A01
KX07 060855Z AUTO 00000KT M1/4SM FG OVC002 14/14 A3012 RMK A01
KX07 060835Z AUTO 00000KT M1/4SM FG OVC001 14/14 A3012 RMK A01
KX07 060815Z AUTO 00000KT M1/4SM FG OVC002 14/14 A3013 RMK A01
KX07 060755Z AUTO 00000KT 1 1/2SM BR OVC003 14/14 A3013 RMK A01
KX07 060735Z AUTO 00000KT M1/4SM FG OVC003 13/13 A3013 RMK A01
KX07 060715Z AUTO 00000KT M1/4SM FG OVC003 13/13 A3014 RMK A01
KX07 060655Z AUTO 00000KT 1/4SM FG OVC003 15/15 A3015 RMK A01
KX07 060635Z AUTO 00000KT 6SM BR SCT047 16/16 A3014 RMK A01
KX07 060615Z AUTO 00000KT 9SM SCT047 16/16 A3015 RMK A01
KX07 060555Z AUTO 00000KT 10SM FEW049 17/17 A3015 RMK A01
KX07 060535Z AUTO 00000KT 10SM FEW046 16/16 A3015 RMK A01
KX07 060515Z AUTO 00000KT 10SM BKN046 16/15 A3016 RMK A01
KX07 060455Z AUTO 00000KT 10SM SCT044 17/16 A3016 RMK A01
KX07 060435Z AUTO 00000KT 10SM FEW044 17/17 A3017 RMK A01
KX07 060415Z AUTO 00000KT 10SM FEW047 17/17 A3016 RMK A01
KX07 060355Z AUTO 00000KT 10SM CLR 17/17 A3017 RMK A01
KX07 060335Z AUTO 00000KT 10SM CLR 17/17 A3017 RMK A01
KX07 060315Z AUTO 00000KT 10SM CLR 18/17 A3016 RMK A01
KX07 060255Z AUTO 11004KT 10SM CLR 18/17 A3017 RMK A01
KX07 060235Z AUTO 11004KT 10SM FEW047 19/17 A3016 RMK A01
KX07 060215Z AUTO 12005KT 10SM CLR 19/17 A3016 RMK A01
KX07 060155Z AUTO 10006KT 10SM CLR 19/17 A3015 RMK A01
KX07 060135Z AUTO 11006KT 10SM CLR 19/17 A3015 RMK A01
KX07 060115Z AUTO 10005KT 10SM SCT040 19/17 A3014 RMK A01
KX07 060055Z AUTO 11006KT 10SM CLR 20/17 A3014 RMK A01
KX07 060035Z AUTO 12006KT 10SM CLR 20/17 A3014 RMK A01
KX07 060015Z AUTO 10005KT 10SM CLR 21/17 A3013 RMK A01
KX07 052355Z AUTO 10004KT 10SM CLR 21/17 A3013 RMK A01
KX07 052335Z AUTO 11005KT 10SM SCT050 SCT065 22/17 A3013 RMK A01
KX07 052315Z AUTO 11006KT 10SM BKN050 22/18 A3012 RMK A01
KX07 052255Z AUTO 10006KT 10SM BKN055 22/17 A3012 RMK A01
KX07 052235Z AUTO 09004KT 10SM BKN060 23/17 A3012 RMK A01
KX07 052215Z AUTO 09005KT 10SM BKN065 24/17 A3012 RMK A01
KX07 052155Z AUTO 09006KT 10SM BKN060 25/17 A3012 RMK A01
KX07 052135Z AUTO 09008KT 10SM OVC060 25/17 A3011 RMK A01
KX07 052115Z AUTO 10006KT 10SM FEW045 OVC055 25/17 A3012 RMK A01
KX07 052055Z AUTO 10007KT 10SM BKN046 OVC055 25/17 A3012 RMK A01